KFRI

Details ICAO KFRI (FRI)
Name MARSHALL AAF
Region United States
Timezone America/Chicago (UTC-6.0)
Plans Departing 4
Arriving 3
Stats Elevation 1,063 ft / 324 m (AMSL)
Location 39.053958° -96.764498°
Runways 2
Magnetic Variation 3.200° E
Sunrise 2017-12-10 13:36:52 UTC / 2017-12-10 07:36:52 Local
Sunset 2017-12-10 23:06:01 UTC / 2017-12-10 17:06:01 Local
Advertisement - Login to hide

Runways

ID Width Length Bearing (true) Bearing (mag) Surface Threshold Offset Overrun Length
04 150 ft / 46 m 4,516 ft / 1,376 m 50.22° 47.02° Concrete 0 ft / 0 m 0 ft / 0 m
18 150 ft / 46 m 4,508 ft / 1,374 m 185.07° 181.87° Concrete 0 ft / 0 m 0 ft / 0 m
22 150 ft / 46 m 4,516 ft / 1,376 m 230.23° 227.03° Concrete 0 ft / 0 m 0 ft / 0 m
36 150 ft / 46 m 4,508 ft / 1,374 m 5.07° 1.87° Concrete 0 ft / 0 m 0 ft / 0 m

Map

Weather


0- 5 10 15 20 25 30 35+ Temperature / ° C

Clouds and Precipitation
Forecast for 2017-12-11 06:00 UTC. Updated 26 minutes ago

Ground ~20,000 ft ~40,000 ft Winds

METAR

KFRI 110458Z AUTO 00000KT 10SM CLR M01/M08 A3012 RMK AO2 SLP203 T10091077

TAF

TAF KFRI 110000Z 1100/1206 27007KT 9999 SKC 510053 QNH3005INS BECMG 1117/1118 32020G35KT 9999 FEW150 QNH3007INS BECMG 1123/1124 33012KT 9999 FEW030 510053 QNH3017INS BECMG 1205/1206 33009KT 9999 BKN030 510053 QNH3031INS TX16/1117Z TN00/1108Z

Frequencies

Recorded 118.37 MHz ASOS
Unicom 126.20 MHz CTAF
Warning: Do not use this data for real-world aviation or navigation. No guarantee of current accuracy is given.